Time;durP1;ratioP1;P1;durP2;ratioP2;P2;SDS_P1;SDS_P2;PMS_P1;PMS_P2;Temp;Humidity;BMP_temperature;BMP_pressure;BME280_temperature;BME280_humidity;BME280_pressure;Samples;Min_cycle;Max_cycle;Signal;HPM_P1;HPM_P2
2022/07/07 00:02:50;;;;;;;6.78;6.07;;;29.90;46.20;;;;;;4744730;59;21521;-31
2022/07/07 00:07:50;;;;;;;8.05;6.47;;;29.90;46.20;;;;;;4769581;55;21086;-29
2022/07/07 00:12:51;;;;;;;6.95;6.20;;;29.90;46.30;;;;;;5124773;55;21074;-31
2022/07/07 00:17:52;;;;;;;7.32;6.30;;;29.90;46.20;;;;;;5089284;55;21061;-30
2022/07/07 00:22:53;;;;;;;6.85;6.15;;;29.90;46.30;;;;;;4744634;59;21038;-32
2022/07/07 00:27:54;;;;;;;6.72;5.80;;;29.90;46.30;;;;;;5055811;55;21093;-30
2022/07/07 00:32:55;;;;;;;6.25;5.65;;;29.90;46.30;;;;;;5082244;55;21066;-32
2022/07/07 00:37:55;;;;;;;9.68;6.10;;;29.90;46.30;;;;;;4902411;55;21077;-33
2022/07/07 00:42:57;;;;;;;7.22;6.53;;;29.80;46.20;;;;;;4890327;55;20990;-31
2022/07/07 00:47:59;;;;;;;6.53;5.93;;;29.80;46.30;;;;;;4852065;55;21592;-33
2022/07/07 00:53:00;;;;;;;6.57;5.85;;;29.80;46.30;;;;;;4745857;55;21161;-36
2022/07/07 00:58:01;;;;;;;7.87;6.10;;;29.80;46.30;;;;;;4887892;55;21021;-30
2022/07/07 01:03:01;;;;;;;6.30;5.50;;;29.80;46.20;;;;;;5016902;55;21492;-31
2022/07/07 01:08:08;;;;;;;7.55;5.97;;;29.80;46.30;;;;;;4783448;55;21562;-31
2022/07/07 01:13:09;;;;;;;6.45;5.62;;;29.80;46.30;;;;;;5047259;55;21524;-31
2022/07/07 01:18:10;;;;;;;6.62;5.90;;;29.80;46.40;;;;;;4900366;55;20998;-32
2022/07/07 01:23:11;;;;;;;6.20;5.60;;;29.80;46.30;;;;;;5013656;55;21551;-31
2022/07/07 01:28:12;;;;;;;7.18;6.18;;;29.80;46.20;;;;;;4767384;55;21053;-31
2022/07/07 01:33:16;;;;;;;6.70;5.65;;;29.80;46.30;;;;;;5154720;55;21519;-31
2022/07/07 01:38:16;;;;;;;6.15;5.55;;;29.80;46.20;;;;;;4763149;55;21006;-32
2022/07/07 01:43:17;;;;;;;7.75;5.60;;;29.80;46.20;;;;;;4745506;59;21018;-30
2022/07/07 01:48:18;;;;;;;8.38;5.50;;;29.80;46.30;;;;;;4845514;55;21074;-31
2022/07/07 01:53:19;;;;;;;7.35;5.93;;;29.80;46.30;;;;;;5048063;55;21539;-30
2022/07/07 01:58:20;;;;;;;6.07;5.35;;;29.80;46.30;;;;;;4751549;55;21001;-29
2022/07/07 02:03:21;;;;;;;6.20;5.60;;;29.80;46.30;;;;;;4785117;55;21461;-28
2022/07/07 02:08:22;;;;;;;5.70;5.07;;;29.80;46.20;;;;;;4745810;59;21041;-29
2022/07/07 02:13:23;;;;;;;5.80;5.12;;;29.80;46.20;;;;;;4895158;55;21066;-34
2022/07/07 02:18:24;;;;;;;5.95;5.35;;;29.80;46.20;;;;;;5188204;55;21603;-31
2022/07/07 02:23:25;;;;;;;6.70;5.45;;;29.80;46.30;;;;;;4745176;59;21026;-31
2022/07/07 02:28:26;;;;;;;7.57;5.20;;;29.80;46.30;;;;;;5068656;55;21014;-34
2022/07/07 02:33:28;;;;;;;6.40;5.70;;;29.80;46.20;;;;;;5037065;55;21459;-35
2022/07/07 02:38:30;;;;;;;5.85;5.20;;;29.70;46.10;;;;;;4813307;55;21050;-29
2022/07/07 02:43:31;;;;;;;6.45;5.35;;;29.70;46.10;;;;;;4896965;55;21002;-34
2022/07/07 02:48:32;;;;;;;5.68;5.18;;;29.80;46.10;;;;;;4805982;55;21053;-32
2022/07/07 02:53:34;;;;;;;7.55;5.60;;;29.70;46.10;;;;;;4865670;55;21125;-31
2022/07/07 02:58:34;;;;;;;5.45;4.95;;;29.70;46.10;;;;;;4876968;55;21497;-35
2022/07/07 03:03:36;;;;;;;6.55;5.00;;;29.80;46.30;;;;;;4751688;55;21069;-32
2022/07/07 03:08:37;;;;;;;6.20;5.28;;;29.70;46.20;;;;;;4791904;55;21452;-35
2022/07/07 03:13:38;;;;;;;5.45;4.93;;;29.70;46.20;;;;;;5230602;55;20995;-32
2022/07/07 03:18:38;;;;;;;5.72;5.15;;;29.70;46.10;;;;;;4832618;55;21002;-35
2022/07/07 03:23:39;;;;;;;6.12;5.50;;;29.70;46.70;;;;;;4934301;55;21010;-30
2022/07/07 03:28:40;;;;;;;6.12;5.25;;;29.70;46.10;;;;;;4818702;55;21090;-31
2022/07/07 03:33:41;;;;;;;6.00;4.95;;;29.70;46.00;;;;;;4850295;55;21057;-29
2022/07/07 03:38:42;;;;;;;6.53;5.20;;;29.70;46.00;;;;;;5140926;55;21078;-31
2022/07/07 03:43:42;;;;;;;5.72;4.97;;;29.70;46.00;;;;;;4776896;55;21548;-30
2022/07/07 03:48:43;;;;;;;6.25;5.40;;;29.70;46.00;;;;;;4788852;55;21560;-30
2022/07/07 03:53:44;;;;;;;6.70;5.18;;;29.70;46.00;;;;;;4796911;55;21106;-33
2022/07/07 03:58:45;;;;;;;5.80;5.20;;;29.70;45.90;;;;;;4812147;55;21014;-33
2022/07/07 04:03:46;;;;;;;7.72;5.25;;;29.70;45.70;;;;;;4907654;55;21114;-33
2022/07/07 04:08:46;;;;;;;7.37;5.37;;;29.70;45.90;;;;;;4896168;55;20995;-30
2022/07/07 04:13:47;;;;;;;6.12;5.53;;;29.70;45.90;;;;;;4981482;55;21010;-29
2022/07/07 04:18:48;;;;;;;5.45;4.87;;;29.70;45.80;;;;;;4802301;55;21508;-31
2022/07/07 04:23:49;;;;;;;6.10;5.15;;;29.70;46.50;;;;;;4887209;55;21026;-30
2022/07/07 04:28:50;;;;;;;6.00;5.35;;;29.70;45.90;;;;;;4884787;55;21022;-30
2022/07/07 04:33:51;;;;;;;6.03;5.10;;;29.70;45.80;;;;;;4899168;55;21089;-31
2022/07/07 04:38:52;;;;;;;6.55;5.28;;;29.70;45.70;;;;;;4984072;55;21599;-31
2022/07/07 04:43:52;;;;;;;8.15;5.15;;;29.60;45.70;;;;;;4831094;55;21025;-28
2022/07/07 04:48:53;;;;;;;5.78;5.18;;;29.60;45.60;;;;;;4862851;55;21087;-33
2022/07/07 04:53:54;;;;;;;7.55;4.82;;;29.60;45.80;;;;;;4745697;56;20994;-33
2022/07/07 04:58:55;;;;;;;6.30;5.43;;;29.60;45.60;;;;;;4948894;55;21006;-32
2022/07/07 05:03:56;;;;;;;6.93;5.40;;;29.60;46.20;;;;;;4778167;55;21025;-30
2022/07/07 05:08:57;;;;;;;6.47;5.35;;;29.60;45.50;;;;;;4745318;59;21049;-29
2022/07/07 05:13:58;;;;;;;5.43;4.93;;;29.60;45.60;;;;;;5125455;55;21484;-30
2022/07/07 05:18:58;;;;;;;7.57;5.55;;;29.60;45.50;;;;;;4946174;55;21006;-30
2022/07/07 05:23:59;;;;;;;6.32;5.28;;;29.60;45.90;;;;;;4806395;55;21074;-29
2022/07/07 05:29:00;;;;;;;9.00;5.80;;;29.60;45.60;;;;;;4802761;55;21093;-31
2022/07/07 05:34:01;;;;;;;6.85;5.45;;;29.60;45.60;;;;;;4745633;59;21445;-29
2022/07/07 05:39:02;;;;;;;7.43;5.85;;;29.60;45.60;;;;;;4929765;55;20986;-31
2022/07/07 05:44:03;;;;;;;8.10;5.90;;;29.60;45.60;;;;;;4932883;55;21168;-28
2022/07/07 05:49:04;;;;;;;6.43;5.53;;;29.60;45.60;;;;;;4860629;55;21097;-28
2022/07/07 05:54:05;;;;;;;7.65;6.03;;;29.60;45.60;;;;;;4751785;55;21018;-29
2022/07/07 05:59:06;;;;;;;6.20;5.60;;;29.60;45.60;;;;;;4858269;55;21445;-30
2022/07/07 06:04:07;;;;;;;7.12;6.30;;;29.60;45.60;;;;;;4745081;59;21066;-30
2022/07/07 06:09:07;;;;;;;7.43;5.80;;;29.60;45.60;;;;;;4856071;55;21023;-29
2022/07/07 06:14:08;;;;;;;7.22;5.75;;;29.60;45.70;;;;;;4784529;55;21013;-29
2022/07/07 06:19:11;;;;;;;7.70;5.40;;;29.60;45.80;;;;;;4798962;55;20990;-29
2022/07/07 06:24:12;;;;;;;9.45;6.40;;;29.60;46.40;;;;;;4820445;55;21081;-32
2022/07/07 06:29:12;;;;;;;7.68;6.03;;;29.60;45.70;;;;;;4904800;55;21014;-29
2022/07/07 06:34:13;;;;;;;8.68;6.20;;;29.60;45.70;;;;;;4771050;55;21042;-29
2022/07/07 06:39:14;;;;;;;10.10;6.30;;;29.60;45.80;;;;;;4796337;55;20998;-29
2022/07/07 06:44:15;;;;;;;9.07;6.37;;;29.60;45.70;;;;;;4744636;56;21038;-32
2022/07/07 06:49:16;;;;;;;7.07;6.37;;;29.60;45.90;;;;;;4745545;55;21014;-40
2022/07/07 06:54:16;;;;;;;7.50;6.20;;;29.60;45.80;;;;;;4804219;55;20986;-28
2022/07/07 06:59:18;;;;;;;24.20;14.70;;;29.60;45.80;;;;;;4818528;55;21537;-29
2022/07/07 07:04:19;;;;;;;23.25;13.80;;;29.40;42.90;;;;;;4868363;55;21491;-29
2022/07/07 07:09:20;;;;;;;22.13;15.30;;;29.20;43.00;;;;;;4827005;55;20994;-29
2022/07/07 07:14:22;;;;;;;29.08;19.48;;;29.00;43.10;;;;;;4836172;55;21085;-28
2022/07/07 07:19:23;;;;;;;30.75;19.12;;;29.00;43.10;;;;;;4814314;55;21492;-31
2022/07/07 07:24:23;;;;;;;24.40;15.45;;;28.90;43.20;;;;;;4916074;55;21021;-31
2022/07/07 07:29:24;;;;;;;21.70;13.62;;;28.90;43.00;;;;;;4778937;55;21500;-29
2022/07/07 07:34:25;;;;;;;17.37;12.70;;;28.90;42.80;;;;;;4842964;55;21014;-28
2022/07/07 07:39:26;;;;;;;17.52;12.25;;;28.90;42.10;;;;;;4745394;55;21053;-30
2022/07/07 07:49:46;;;;;;;29.60;17.73;;;28.80;41.40;;;;;;4745003;55;21022;-30
2022/07/07 07:54:47;;;;;;;26.65;15.40;;;28.90;41.50;;;;;;4773818;55;21096;-29
2022/07/07 07:59:48;;;;;;;27.35;16.37;;;28.90;40.60;;;;;;4745225;55;21014;-31
2022/07/07 08:04:49;;;;;;;25.05;18.25;;;28.90;40.30;;;;;;4744693;59;21540;-27
2022/07/07 08:09:50;;;;;;;24.45;17.12;;;28.90;39.70;;;;;;4851933;55;21054;-28
2022/07/07 08:14:51;;;;;;;30.37;19.83;;;28.90;39.30;;;;;;4745155;55;21539;-28
2022/07/07 08:19:51;;;;;;;22.17;16.80;;;28.90;39.30;;;;;;4744895;59;21065;-28
2022/07/07 08:24:53;;;;;;;30.30;23.90;;;28.90;39.60;;;;;;4763789;55;21085;-29
2022/07/07 08:29:54;;;;;;;34.42;25.98;;;28.90;39.80;;;;;;4744596;59;21029;-25
2022/07/07 08:34:54;;;;;;;26.20;22.48;;;29.00;40.00;;;;;;4837534;55;21002;-29
2022/07/07 08:39:55;;;;;;;30.80;22.23;;;29.00;40.00;;;;;;4845238;55;21017;-30
2022/07/07 08:44:56;;;;;;;31.02;24.00;;;29.00;40.10;;;;;;5062275;55;21022;-27
2022/07/07 08:49:59;;;;;;;35.88;25.23;;;29.10;40.40;;;;;;4745142;55;20990;-27
2022/07/07 08:55:02;;;;;;;30.67;19.42;;;29.10;40.40;;;;;;4757359;55;21483;-31
2022/07/07 09:00:03;;;;;;;32.63;23.52;;;29.20;40.20;;;;;;4754963;55;21104;-32
2022/07/07 09:05:05;;;;;;;25.65;19.58;;;29.20;39.90;;;;;;4989906;55;21041;-29
2022/07/07 09:10:06;;;;;;;27.60;22.30;;;29.10;39.70;;;;;;5020474;55;20998;-28
2022/07/07 09:15:11;;;;;;;28.77;20.30;;;29.10;39.70;;;;;;4888762;55;20982;-29
2022/07/07 09:20:12;;;;;;;27.15;20.85;;;29.20;40.30;;;;;;4863166;55;21461;-30
2022/07/07 09:25:17;;;;;;;30.45;20.70;;;29.30;40.50;;;;;;4746649;55;21026;-28
2022/07/07 09:30:49;;;;;;;24.42;20.85;;;29.40;40.40;;;;;;4773009;55;21018;-29
2022/07/07 09:41:13;;;;;;;36.90;28.55;;;29.50;40.70;;;;;;4745405;55;21014;-30
2022/07/07 09:46:24;;;;;;;32.25;26.52;;;29.40;40.00;;;;;;4789689;55;21010;-32
2022/07/07 09:51:32;;;;;;;28.38;21.02;;;29.40;40.10;;;;;;4859038;55;21054;-29
2022/07/07 09:56:36;;;;;;;23.80;20.73;;;29.40;39.90;;;;;;4745548;55;21052;-28
2022/07/07 10:01:39;;;;;;;25.52;21.12;;;29.40;40.20;;;;;;5017473;55;21002;-28
2022/07/07 10:06:42;;;;;;;33.13;25.58;;;29.50;40.30;;;;;;4745239;59;21014;-30
2022/07/07 10:11:54;;;;;;;27.10;21.98;;;29.50;39.90;;;;;;4745088;59;21026;-30
2022/07/07 10:16:55;;;;;;;29.70;21.98;;;29.50;40.10;;;;;;4756151;55;21513;-29
2022/07/07 10:21:58;;;;;;;26.87;21.77;;;29.50;39.60;;;;;;4874033;55;21022;-28
2022/07/07 10:27:01;;;;;;;28.38;19.33;;;29.50;38.80;;;;;;4787907;55;21524;-29
2022/07/07 10:32:03;;;;;;;23.62;15.05;;;29.50;37.60;;;;;;4787269;55;20985;-28
2022/07/07 10:37:11;;;;;;;18.42;13.80;;;29.40;35.50;;;;;;4766337;55;21007;-30
2022/07/07 10:43:38;;;;;;;21.87;17.30;;;29.50;36.10;;;;;;4768794;55;21010;-28
2022/07/07 10:48:47;;;;;;;27.80;19.85;;;29.50;37.10;;;;;;4888902;55;20998;-27
2022/07/07 10:54:10;;;;;;;23.92;19.85;;;29.50;35.00;;;;;;4869685;55;20982;-31
2022/07/07 10:59:11;;;;;;;19.58;16.80;;;29.50;34.40;;;;;;4745677;59;21540;-28
2022/07/07 11:04:12;;;;;;;21.95;18.08;;;29.50;33.70;;;;;;4781616;55;21061;-34
2022/07/07 11:09:13;;;;;;;20.80;17.25;;;29.40;33.10;;;;;;4871955;55;21029;-30
2022/07/07 11:14:14;;;;;;;19.73;16.42;;;29.40;33.40;;;;;;4745040;59;21482;-32
2022/07/07 11:19:16;;;;;;;19.45;15.27;;;29.50;33.40;;;;;;4859756;55;20999;-29
2022/07/07 11:24:23;;;;;;;17.25;14.32;;;29.50;33.50;;;;;;4771451;55;21022;-29
2022/07/07 11:29:24;;;;;;;17.87;13.57;;;29.60;33.60;;;;;;4777682;55;21646;-29
2022/07/07 11:34:25;;;;;;;14.50;11.82;;;29.60;33.70;;;;;;4754558;55;21009;-28
2022/07/07 11:39:26;;;;;;;15.05;11.63;;;29.60;33.30;;;;;;4825715;55;21467;-28
2022/07/07 11:44:26;;;;;;;14.80;11.48;;;29.50;32.80;;;;;;4775389;55;21570;-28
2022/07/07 11:49:28;;;;;;;13.62;11.10;;;29.50;33.80;;;;;;4791998;55;21479;-32
2022/07/07 11:54:28;;;;;;;14.80;11.55;;;29.60;35.20;;;;;;4772546;55;21057;-28
2022/07/07 11:59:29;;;;;;;13.00;10.43;;;29.70;35.00;;;;;;4404364;55;10000631;-28
2022/07/07 12:04:33;;;;;;;14.50;11.40;;;29.60;33.80;;;;;;4675817;57;21027;-30
2022/07/07 12:09:34;;;;;;;19.10;12.52;;;29.60;33.80;;;;;;4578676;57;26193;-30
2022/07/07 12:14:35;;;;;;;11.70;10.18;;;29.60;34.30;;;;;;4650424;57;21039;-30
2022/07/07 12:19:49;;;;;;;12.43;8.40;;;29.50;33.50;;;;;;4546983;57;21015;-31
2022/07/07 12:25:06;;;;;;;9.98;8.10;;;29.50;33.80;;;;;;4869655;57;22048;-30
2022/07/07 12:30:08;;;;;;;11.68;8.02;;;29.50;34.30;;;;;;4679407;57;21032;-30
2022/07/07 12:35:24;;;;;;;11.30;8.88;;;29.60;34.80;;;;;;4615415;57;21126;-29
2022/07/07 12:40:25;;;;;;;11.57;8.43;;;29.60;34.80;;;;;;4562281;57;21126;-29
2022/07/07 12:45:27;;;;;;;10.07;8.23;;;29.70;35.20;;;;;;4546402;61;21197;-30
2022/07/07 12:50:28;;;;;;;12.00;10.02;;;29.70;35.20;;;;;;4677276;57;21032;-30
2022/07/07 12:55:43;;;;;;;19.23;15.52;;;29.70;35.50;;;;;;4643698;56;21016;-33
2022/07/07 13:01:04;;;;;;;14.77;9.43;;;29.70;35.50;;;;;;4547181;59;21044;-28
2022/07/07 13:06:06;;;;;;;17.30;11.70;;;29.60;34.90;;;;;;4605731;57;21075;-29
2022/07/07 13:11:08;;;;;;;16.80;11.18;;;29.60;35.00;;;;;;4583509;57;21501;-29
2022/07/07 13:16:09;;;;;;;11.43;9.68;;;29.60;35.20;;;;;;4546960;61;21024;-30
2022/07/07 13:21:11;;;;;;;13.27;9.40;;;29.60;35.10;;;;;;4567540;57;21016;-33
2022/07/07 13:26:12;;;;;;;11.88;8.43;;;29.60;35.00;;;;;;4562942;57;21140;-28
2022/07/07 13:31:16;;;;;;;10.90;9.07;;;29.60;34.90;;;;;;4595735;57;21533;-31
2022/07/07 13:36:16;;;;;;;26.25;17.67;;;29.60;35.20;;;;;;4546763;61;21000;-28
2022/07/07 13:41:17;;;;;;;18.65;14.60;;;29.60;34.80;;;;;;4603150;57;21020;-29
2022/07/07 13:46:18;;;;;;;21.30;13.18;;;29.60;34.50;;;;;;4986293;57;21039;-27
2022/07/07 13:51:19;;;;;;;15.18;11.15;;;29.60;34.40;;;;;;4546700;61;21091;-27
2022/07/07 13:56:20;;;;;;;13.93;11.55;;;29.60;34.50;;;;;;4546574;61;21011;-30
2022/07/07 14:01:21;;;;;;;17.83;11.88;;;29.60;35.30;;;;;;4593802;57;21075;-30
2022/07/07 14:06:22;;;;;;;17.15;10.98;;;29.60;35.50;;;;;;4752078;56;21051;-32
2022/07/07 14:11:22;;;;;;;13.05;10.98;;;29.60;35.30;;;;;;4709768;57;21083;-30
2022/07/07 14:16:24;;;;;;;17.92;11.20;;;29.60;35.70;;;;;;4579252;57;21044;-28
2022/07/07 14:21:25;;;;;;;16.35;11.38;;;29.60;35.90;;;;;;4562789;57;21485;-29
2022/07/07 14:26:26;;;;;;;14.27;10.60;;;29.60;36.30;;;;;;4974642;57;21135;-33
2022/07/07 14:31:28;;;;;;;16.00;10.45;;;29.60;36.70;;;;;;4811212;57;21024;-30
2022/07/07 14:36:30;;;;;;;13.77;10.55;;;29.60;36.60;;;;;;4692882;57;21524;-29
2022/07/07 14:41:34;;;;;;;13.40;10.80;;;29.60;36.90;;;;;;4686503;57;21019;-30
2022/07/07 14:46:37;;;;;;;11.95;10.10;;;29.60;37.00;;;;;;4761487;57;21139;-29
2022/07/07 14:51:38;;;;;;;13.18;10.75;;;29.60;37.20;;;;;;4546706;61;21097;-30
2022/07/07 14:56:39;;;;;;;12.98;10.98;;;29.60;37.20;;;;;;4615708;57;21084;-29
2022/07/07 15:01:40;;;;;;;11.80;10.30;;;29.60;37.40;;;;;;4584252;57;21489;-29
2022/07/07 15:06:41;;;;;;;13.00;10.90;;;29.60;37.70;;;;;;4546743;57;21088;-28
2022/07/07 15:11:42;;;;;;;14.45;10.45;;;29.60;37.60;;;;;;4641309;57;21027;-30
2022/07/07 15:16:43;;;;;;;13.43;11.00;;;29.60;38.00;;;;;;4862935;56;21121;-31
2022/07/07 15:21:44;;;;;;;13.02;10.43;;;29.60;38.10;;;;;;4547021;58;21024;-29
2022/07/07 15:26:45;;;;;;;13.07;10.45;;;29.60;38.30;;;;;;4574231;57;21087;-31
2022/07/07 15:31:46;;;;;;;13.80;10.00;;;29.60;38.00;;;;;;4556988;57;21479;-31
2022/07/07 15:36:47;;;;;;;13.52;10.10;;;29.60;38.30;;;;;;4559543;57;21509;-30
2022/07/07 15:41:48;;;;;;;12.95;10.35;;;29.60;38.50;;;;;;4567714;57;21030;-30
2022/07/07 15:46:49;;;;;;;13.32;10.65;;;29.60;38.60;;;;;;4546378;61;21039;-28
2022/07/07 15:51:53;;;;;;;11.82;9.77;;;29.60;38.80;;;;;;4599384;57;21035;-33
2022/07/07 15:56:54;;;;;;;14.32;10.65;;;29.60;39.70;;;;;;4546740;61;21517;-31
2022/07/07 16:01:55;;;;;;;12.95;10.95;;;29.60;39.20;;;;;;4547015;57;21027;-29
2022/07/07 16:06:56;;;;;;;13.23;10.07;;;29.60;38.90;;;;;;4546859;57;21466;-29
2022/07/07 16:11:57;;;;;;;11.73;9.82;;;29.60;39.30;;;;;;4736672;57;21032;-30
2022/07/07 16:16:58;;;;;;;12.57;10.27;;;29.60;39.40;;;;;;4691322;57;21109;-29
2022/07/07 16:22:00;;;;;;;12.77;10.30;;;29.60;39.40;;;;;;4546636;61;21544;-30
2022/07/07 16:27:02;;;;;;;12.10;9.90;;;29.60;39.60;;;;;;4780416;57;21063;-31
2022/07/07 16:32:03;;;;;;;12.07;9.88;;;29.60;39.70;;;;;;4610005;57;21481;-30
2022/07/07 16:37:04;;;;;;;12.43;10.40;;;29.60;39.60;;;;;;4799391;57;21091;-30
2022/07/07 16:42:06;;;;;;;14.25;9.85;;;29.60;39.70;;;;;;4603296;57;21056;-30
2022/07/07 16:47:08;;;;;;;12.50;10.30;;;29.60;40.40;;;;;;4676800;57;21685;-31
2022/07/07 16:52:11;;;;;;;12.10;9.75;;;29.60;39.60;;;;;;4554156;57;21501;-31
2022/07/07 16:57:12;;;;;;;11.70;9.70;;;29.60;39.80;;;;;;4611046;57;21568;-32
2022/07/07 17:02:12;;;;;;;12.32;10.57;;;29.60;40.00;;;;;;4667131;56;21039;-32
2022/07/07 17:07:13;;;;;;;11.60;9.90;;;29.60;40.00;;;;;;4664706;57;21084;-29
2022/07/07 17:12:14;;;;;;;11.57;10.38;;;29.60;40.10;;;;;;4684045;57;21574;-29
2022/07/07 17:17:15;;;;;;;12.50;10.00;;;29.60;39.90;;;;;;4619397;57;21525;-32
2022/07/07 17:22:16;;;;;;;11.20;9.45;;;29.60;40.10;;;;;;4546684;61;21059;-29
2022/07/07 17:27:16;;;;;;;10.50;9.45;;;29.60;40.10;;;;;;4546575;61;21130;-30
2022/07/07 17:32:17;;;;;;;12.32;9.88;;;29.60;41.00;;;;;;4652021;57;21577;-30
2022/07/07 17:37:18;;;;;;;12.02;9.80;;;29.60;40.50;;;;;;4546898;57;21079;-32
2022/07/07 17:42:19;;;;;;;10.70;9.32;;;29.60;40.40;;;;;;4605852;57;21031;-29
2022/07/07 17:47:20;;;;;;;10.93;9.77;;;29.60;40.40;;;;;;4620340;57;21032;-32
2022/07/07 17:52:21;;;;;;;12.85;10.00;;;29.60;40.50;;;;;;4560225;57;21031;-31
2022/07/07 17:57:22;;;;;;;11.48;10.02;;;29.60;40.50;;;;;;4788871;57;21194;-30
2022/07/07 18:02:23;;;;;;;10.70;9.60;;;29.60;40.50;;;;;;4807905;57;21064;-30
2022/07/07 18:07:23;;;;;;;10.73;9.18;;;29.60;40.50;;;;;;4607590;57;21590;-30
2022/07/07 18:12:24;;;;;;;11.60;9.68;;;29.60;40.70;;;;;;4550237;57;21023;-31
2022/07/07 18:17:25;;;;;;;10.77;9.60;;;29.60;40.60;;;;;;4783895;57;21094;-29
2022/07/07 18:22:26;;;;;;;10.63;9.50;;;29.60;40.60;;;;;;4648074;57;21096;-30
2022/07/07 18:27:27;;;;;;;12.60;9.10;;;29.60;40.70;;;;;;4749468;56;21608;-30
2022/07/07 18:32:28;;;;;;;11.35;9.57;;;29.60;40.80;;;;;;4546749;61;21496;-28
2022/07/07 18:37:29;;;;;;;10.68;9.40;;;29.60;40.90;;;;;;4546577;61;21004;-29
2022/07/07 18:42:29;;;;;;;11.63;9.82;;;29.60;40.90;;;;;;4694893;57;21043;-33
2022/07/07 18:47:30;;;;;;;12.30;10.95;;;29.60;40.90;;;;;;4568908;57;21151;-32
2022/07/07 18:52:31;;;;;;;14.35;12.63;;;29.60;41.10;;;;;;4546774;61;21493;-29
2022/07/07 18:57:32;;;;;;;17.40;13.80;;;29.60;40.80;;;;;;4595540;57;21040;-31
2022/07/07 19:02:33;;;;;;;16.65;14.05;;;29.60;41.10;;;;;;4546381;58;21052;-32
2022/07/07 19:07:34;;;;;;;18.25;14.70;;;29.60;41.10;;;;;;4546682;61;21077;-31
2022/07/07 19:12:35;;;;;;;18.02;13.98;;;29.60;40.90;;;;;;4990273;57;21024;-30
2022/07/07 19:17:36;;;;;;;16.92;14.20;;;29.60;41.10;;;;;;4594206;57;21059;-32
2022/07/07 19:22:37;;;;;;;16.83;14.50;;;29.60;41.10;;;;;;4550946;57;21173;-30
2022/07/07 19:27:38;;;;;;;15.93;13.75;;;29.60;41.10;;;;;;4690670;57;21063;-30
2022/07/07 19:32:40;;;;;;;16.30;14.15;;;29.60;41.30;;;;;;4626798;56;21477;-29
2022/07/07 19:37:41;;;;;;;19.45;13.88;;;29.60;41.20;;;;;;4700461;56;21489;-30
2022/07/07 19:42:42;;;;;;;16.05;14.23;;;29.60;41.30;;;;;;4628540;57;21036;-30
2022/07/07 19:47:43;;;;;;;15.75;12.55;;;29.60;41.50;;;;;;4546707;58;21489;-30
2022/07/07 19:52:44;;;;;;;17.45;13.55;;;29.60;41.40;;;;;;4593375;57;21028;-31
2022/07/07 19:57:45;;;;;;;15.15;12.73;;;29.60;41.60;;;;;;4568983;57;21545;-30
2022/07/07 20:02:46;;;;;;;16.08;12.73;;;29.60;41.60;;;;;;4807022;57;21064;-30
2022/07/07 20:07:47;;;;;;;15.68;13.27;;;29.60;41.60;;;;;;4566569;57;21048;-30
2022/07/07 20:12:48;;;;;;;16.37;13.05;;;29.60;41.70;;;;;;4599938;57;21004;-29
2022/07/07 20:17:50;;;;;;;15.93;12.60;;;29.60;41.70;;;;;;4629581;57;21032;-30
2022/07/07 20:22:51;;;;;;;17.98;13.18;;;29.60;41.80;;;;;;4656843;57;21079;-31
2022/07/07 20:27:52;;;;;;;14.05;12.43;;;29.60;41.90;;;;;;4546148;61;21565;-31
2022/07/07 20:32:52;;;;;;;16.12;12.55;;;29.60;41.90;;;;;;4546514;61;21080;-31
2022/07/07 20:37:53;;;;;;;15.23;12.98;;;29.60;42.50;;;;;;4563975;57;21120;-31
2022/07/07 20:42:54;;;;;;;14.13;11.98;;;29.60;42.00;;;;;;4562801;57;21083;-33
2022/07/07 20:47:56;;;;;;;15.82;12.90;;;29.60;42.10;;;;;;4809417;57;21610;-28
2022/07/07 20:52:58;;;;;;;15.95;12.68;;;29.60;42.00;;;;;;4602926;57;21098;-29
2022/07/07 20:57:58;;;;;;;16.77;12.27;;;29.60;42.20;;;;;;4548598;57;21171;-31
2022/07/07 21:02:59;;;;;;;14.50;12.20;;;29.60;42.20;;;;;;4608729;57;21134;-30
2022/07/07 21:08:00;;;;;;;15.85;12.57;;;29.60;43.00;;;;;;4547002;61;21110;-30
2022/07/07 21:13:01;;;;;;;15.35;12.60;;;29.60;42.30;;;;;;4546975;61;21139;-31
2022/07/07 21:18:02;;;;;;;13.90;11.45;;;29.60;42.30;;;;;;4722629;57;21159;-30
2022/07/07 21:23:03;;;;;;;13.02;11.30;;;29.60;42.20;;;;;;4861392;57;21175;-30
2022/07/07 21:28:04;;;;;;;13.00;10.27;;;29.60;42.30;;;;;;4546482;61;21649;-32
2022/07/07 21:33:05;;;;;;;12.40;10.70;;;29.60;42.30;;;;;;4931985;57;21076;-34
2022/07/07 21:38:06;;;;;;;12.43;10.82;;;29.60;42.30;;;;;;4783283;57;21127;-34
2022/07/07 21:43:07;;;;;;;12.65;10.38;;;29.60;42.40;;;;;;4599558;57;21039;-32
2022/07/07 21:48:07;;;;;;;11.77;10.27;;;29.60;42.40;;;;;;4705950;57;21510;-33
2022/07/07 21:53:08;;;;;;;12.82;10.55;;;29.50;42.40;;;;;;4990614;56;21027;-30
2022/07/07 21:58:09;;;;;;;13.68;9.80;;;29.60;42.40;;;;;;4990590;57;21100;-32
2022/07/07 22:03:10;;;;;;;13.55;9.85;;;29.60;42.50;;;;;;4549864;57;21095;-30
2022/07/07 22:08:10;;;;;;;12.98;10.10;;;29.60;42.50;;;;;;4990583;57;21092;-30
2022/07/07 22:13:11;;;;;;;11.98;10.07;;;29.60;42.60;;;;;;4573334;57;21493;-30
2022/07/07 22:18:12;;;;;;;13.88;9.50;;;29.60;42.60;;;;;;4802658;57;21107;-30
2022/07/07 22:23:13;;;;;;;10.98;9.10;;;29.60;42.70;;;;;;4607979;57;21091;-31
2022/07/07 22:28:14;;;;;;;10.38;9.15;;;29.50;42.90;;;;;;4602527;57;21116;-30
2022/07/07 22:33:14;;;;;;;11.95;8.82;;;29.60;42.80;;;;;;4600119;57;21031;-31
2022/07/07 22:38:15;;;;;;;12.55;9.18;;;29.60;42.80;;;;;;4990137;57;21059;-30
2022/07/07 22:43:16;;;;;;;10.15;9.02;;;29.50;42.70;;;;;;4596669;57;21513;-31
2022/07/07 22:48:20;;;;;;;11.07;8.55;;;29.60;42.80;;;;;;4618296;57;21040;-33
2022/07/07 22:53:21;;;;;;;9.73;8.80;;;29.50;42.90;;;;;;4626677;57;21027;-32
2022/07/07 22:58:22;;;;;;;11.52;9.15;;;29.50;42.80;;;;;;4624253;57;21023;-29
2022/07/07 23:03:22;;;;;;;12.35;8.75;;;29.50;43.00;;;;;;4580152;57;21028;-31
2022/07/07 23:08:24;;;;;;;10.35;8.80;;;29.50;42.90;;;;;;4578622;57;21080;-30
2022/07/07 23:13:25;;;;;;;11.32;8.57;;;29.60;43.10;;;;;;4694806;57;21032;-33
2022/07/07 23:18:26;;;;;;;9.45;8.50;;;29.50;42.90;;;;;;4732414;57;21491;-29
2022/07/07 23:23:27;;;;;;;9.45;7.95;;;29.50;42.90;;;;;;4973434;57;21031;-29
2022/07/07 23:28:28;;;;;;;10.77;8.63;;;29.50;43.10;;;;;;4546312;61;21051;-33
2022/07/07 23:33:29;;;;;;;9.25;8.13;;;29.50;43.10;;;;;;4718943;57;21027;-29
2022/07/07 23:38:29;;;;;;;10.63;8.18;;;29.50;43.10;;;;;;4718131;56;21035;-28
2022/07/07 23:43:30;;;;;;;9.05;8.15;;;29.50;43.20;;;;;;4546529;61;21078;-29
2022/07/07 23:48:31;;;;;;;9.23;8.10;;;29.50;43.30;;;;;;4547090;61;21474;-32
2022/07/07 23:53:32;;;;;;;8.65;7.75;;;29.50;44.00;;;;;;4581395;57;21177;-33
2022/07/07 23:58:33;;;;;;;9.05;7.87;;;29.50;43.40;;;;;;4547175;61;21112;-31
